sensor_id;sensor_type;location;lat;lon;timestamp;temperature;humidity
13686;DHT22;6915;48.296;8.874;2023-05-29T00:01:42;10.20;99.90
13686;DHT22;6915;48.296;8.874;2023-05-29T00:04:10;10.10;99.90
13686;DHT22;6915;48.296;8.874;2023-05-29T00:06:41;10.10;99.90
13686;DHT22;6915;48.296;8.874;2023-05-29T00:09:09;9.90;99.90
13686;DHT22;6915;48.296;8.874;2023-05-29T00:11:38;9.80;99.90
13686;DHT22;6915;48.296;8.874;2023-05-29T00:14:07;9.80;99.90
13686;DHT22;6915;48.296;8.874;2023-05-29T00:16:40;9.90;99.90
13686;DHT22;6915;48.296;8.874;2023-05-29T00:19:11;9.80;99.90
13686;DHT22;6915;48.296;8.874;2023-05-29T00:21:41;9.80;99.90
13686;DHT22;6915;48.296;8.874;2023-05-29T00:24:10;9.80;99.90
13686;DHT22;6915;48.296;8.874;2023-05-29T00:26:39;9.80;99.90
13686;DHT22;6915;48.296;8.874;2023-05-29T00:29:08;9.80;99.90
13686;DHT22;6915;48.296;8.874;2023-05-29T00:31:37;9.70;99.90
13686;DHT22;6915;48.296;8.874;2023-05-29T00:34:07;9.70;99.90
13686;DHT22;6915;48.296;8.874;2023-05-29T00:36:36;9.70;99.90
13686;DHT22;6915;48.296;8.874;2023-05-29T00:39:07;9.60;99.90
13686;DHT22;6915;48.296;8.874;2023-05-29T00:41:36;9.70;99.90
13686;DHT22;6915;48.296;8.874;2023-05-29T00:44:07;9.60;99.90
13686;DHT22;6915;48.296;8.874;2023-05-29T00:46:36;9.50;99.90
13686;DHT22;6915;48.296;8.874;2023-05-29T00:49:06;9.50;99.90
13686;DHT22;6915;48.296;8.874;2023-05-29T00:51:34;9.40;99.90
13686;DHT22;6915;48.296;8.874;2023-05-29T00:54:04;9.40;99.90
13686;DHT22;6915;48.296;8.874;2023-05-29T00:56:34;9.20;99.90
13686;DHT22;6915;48.296;8.874;2023-05-29T00:59:03;9.10;99.90
13686;DHT22;6915;48.296;8.874;2023-05-29T01:01:32;9.10;99.90
13686;DHT22;6915;48.296;8.874;2023-05-29T01:04:05;9.10;99.90
13686;DHT22;6915;48.296;8.874;2023-05-29T01:06:34;9.20;99.90
13686;DHT22;6915;48.296;8.874;2023-05-29T01:09:04;9.20;99.90
13686;DHT22;6915;48.296;8.874;2023-05-29T01:11:40;9.10;99.90
13686;DHT22;6915;48.296;8.874;2023-05-29T01:14:19;9.00;99.90
13686;DHT22;6915;48.296;8.874;2023-05-29T01:16:51;8.70;99.90
13686;DHT22;6915;48.296;8.874;2023-05-29T01:19:31;8.70;99.90
13686;DHT22;6915;48.296;8.874;2023-05-29T01:22:11;8.70;99.90
13686;DHT22;6915;48.296;8.874;2023-05-29T01:24:51;8.70;99.90
13686;DHT22;6915;48.296;8.874;2023-05-29T01:27:28;8.70;99.90
13686;DHT22;6915;48.296;8.874;2023-05-29T01:29:59;8.80;99.90
13686;DHT22;6915;48.296;8.874;2023-05-29T01:32:30;8.70;99.90
13686;DHT22;6915;48.296;8.874;2023-05-29T01:34:59;8.60;99.90
13686;DHT22;6915;48.296;8.874;2023-05-29T01:37:27;8.60;99.90
13686;DHT22;6915;48.296;8.874;2023-05-29T01:39:56;8.60;99.90
13686;DHT22;6915;48.296;8.874;2023-05-29T01:42:24;8.60;99.90
13686;DHT22;6915;48.296;8.874;2023-05-29T01:44:54;8.50;99.90
13686;DHT22;6915;48.296;8.874;2023-05-29T01:47:22;8.50;99.90
13686;DHT22;6915;48.296;8.874;2023-05-29T01:49:53;8.50;99.90
13686;DHT22;6915;48.296;8.874;2023-05-29T01:52:22;8.40;99.90
13686;DHT22;6915;48.296;8.874;2023-05-29T01:54:51;8.40;99.90
13686;DHT22;6915;48.296;8.874;2023-05-29T01:57:20;8.50;99.90
13686;DHT22;6915;48.296;8.874;2023-05-29T01:59:50;8.50;99.90
13686;DHT22;6915;48.296;8.874;2023-05-29T02:02:18;8.30;99.90
13686;DHT22;6915;48.296;8.874;2023-05-29T02:04:49;8.40;99.90
13686;DHT22;6915;48.296;8.874;2023-05-29T02:07:19;8.30;99.90
13686;DHT22;6915;48.296;8.874;2023-05-29T02:09:47;8.30;99.90
13686;DHT22;6915;48.296;8.874;2023-05-29T02:12:16;8.20;99.90
13686;DHT22;6915;48.296;8.874;2023-05-29T02:14:44;8.20;99.90
13686;DHT22;6915;48.296;8.874;2023-05-29T02:17:15;8.10;99.90
13686;DHT22;6915;48.296;8.874;2023-05-29T02:19:43;8.20;99.90
13686;DHT22;6915;48.296;8.874;2023-05-29T02:22:12;8.10;99.90
13686;DHT22;6915;48.296;8.874;2023-05-29T02:24:41;8.10;99.90
13686;DHT22;6915;48.296;8.874;2023-05-29T02:27:09;7.90;99.90
13686;DHT22;6915;48.296;8.874;2023-05-29T02:29:38;7.90;99.90
13686;DHT22;6915;48.296;8.874;2023-05-29T02:32:07;7.90;99.90
13686;DHT22;6915;48.296;8.874;2023-05-29T02:34:37;7.80;99.90
13686;DHT22;6915;48.296;8.874;2023-05-29T02:37:06;7.90;99.90
13686;DHT22;6915;48.296;8.874;2023-05-29T02:39:35;7.80;99.90
13686;DHT22;6915;48.296;8.874;2023-05-29T02:42:04;7.70;99.90
13686;DHT22;6915;48.296;8.874;2023-05-29T02:44:33;7.60;99.90
13686;DHT22;6915;48.296;8.874;2023-05-29T02:47:02;7.70;99.90
13686;DHT22;6915;48.296;8.874;2023-05-29T02:49:32;7.70;99.90
13686;DHT22;6915;48.296;8.874;2023-05-29T02:52:03;7.60;99.90
13686;DHT22;6915;48.296;8.874;2023-05-29T02:54:31;7.60;99.90
13686;DHT22;6915;48.296;8.874;2023-05-29T02:57:00;7.60;99.90
13686;DHT22;6915;48.296;8.874;2023-05-29T02:59:29;7.70;99.90
13686;DHT22;6915;48.296;8.874;2023-05-29T03:01:59;7.70;99.90
13686;DHT22;6915;48.296;8.874;2023-05-29T03:04:28;7.70;99.90
13686;DHT22;6915;48.296;8.874;2023-05-29T03:06:57;7.50;99.90
13686;DHT22;6915;48.296;8.874;2023-05-29T03:09:27;7.40;99.90
13686;DHT22;6915;48.296;8.874;2023-05-29T03:11:56;7.40;99.90
13686;DHT22;6915;48.296;8.874;2023-05-29T03:14:24;7.40;99.90
13686;DHT22;6915;48.296;8.874;2023-05-29T03:16:54;7.40;99.90
13686;DHT22;6915;48.296;8.874;2023-05-29T03:19:23;7.50;99.90
13686;DHT22;6915;48.296;8.874;2023-05-29T03:21:52;7.40;99.90
13686;DHT22;6915;48.296;8.874;2023-05-29T03:24:22;7.30;99.90
13686;DHT22;6915;48.296;8.874;2023-05-29T03:26:53;7.30;99.90
13686;DHT22;6915;48.296;8.874;2023-05-29T03:29:25;7.40;99.90
13686;DHT22;6915;48.296;8.874;2023-05-29T03:31:53;7.30;99.90
13686;DHT22;6915;48.296;8.874;2023-05-29T03:34:22;7.40;99.90
13686;DHT22;6915;48.296;8.874;2023-05-29T03:36:50;7.30;99.90
13686;DHT22;6915;48.296;8.874;2023-05-29T03:39:19;7.30;99.90
13686;DHT22;6915;48.296;8.874;2023-05-29T03:41:47;7.30;99.90
13686;DHT22;6915;48.296;8.874;2023-05-29T03:44:16;7.20;99.90
13686;DHT22;6915;48.296;8.874;2023-05-29T03:46:45;7.30;99.90
13686;DHT22;6915;48.296;8.874;2023-05-29T03:49:14;7.20;99.90
13686;DHT22;6915;48.296;8.874;2023-05-29T03:51:45;7.20;99.90
13686;DHT22;6915;48.296;8.874;2023-05-29T03:54:13;7.30;99.90
13686;DHT22;6915;48.296;8.874;2023-05-29T03:56:42;7.40;99.90
13686;DHT22;6915;48.296;8.874;2023-05-29T03:59:10;7.30;99.90
13686;DHT22;6915;48.296;8.874;2023-05-29T04:01:40;7.40;99.90
13686;DHT22;6915;48.296;8.874;2023-05-29T04:04:09;7.60;99.90
13686;DHT22;6915;48.296;8.874;2023-05-29T04:06:37;8.00;99.90
13686;DHT22;6915;48.296;8.874;2023-05-29T04:09:06;8.40;99.90
13686;DHT22;6915;48.296;8.874;2023-05-29T04:11:37;8.80;99.90
13686;DHT22;6915;48.296;8.874;2023-05-29T04:14:06;9.20;99.90
13686;DHT22;6915;48.296;8.874;2023-05-29T04:16:35;9.50;99.90
13686;DHT22;6915;48.296;8.874;2023-05-29T04:19:05;9.80;99.90
13686;DHT22;6915;48.296;8.874;2023-05-29T04:21:35;10.10;99.90
13686;DHT22;6915;48.296;8.874;2023-05-29T04:24:04;10.40;99.90
13686;DHT22;6915;48.296;8.874;2023-05-29T04:26:33;10.70;99.90
13686;DHT22;6915;48.296;8.874;2023-05-29T04:29:02;10.90;99.90
13686;DHT22;6915;48.296;8.874;2023-05-29T04:31:31;11.40;99.90
13686;DHT22;6915;48.296;8.874;2023-05-29T04:33:59;11.70;99.90
13686;DHT22;6915;48.296;8.874;2023-05-29T04:36:33;12.30;99.90
13686;DHT22;6915;48.296;8.874;2023-05-29T04:39:06;12.50;99.90
13686;DHT22;6915;48.296;8.874;2023-05-29T04:41:34;12.80;99.90
13686;DHT22;6915;48.296;8.874;2023-05-29T04:44:05;12.70;99.90
13686;DHT22;6915;48.296;8.874;2023-05-29T04:46:39;13.00;99.90
13686;DHT22;6915;48.296;8.874;2023-05-29T04:49:11;13.40;99.90
13686;DHT22;6915;48.296;8.874;2023-05-29T04:51:42;13.70;99.90
13686;DHT22;6915;48.296;8.874;2023-05-29T04:54:13;13.80;99.90
13686;DHT22;6915;48.296;8.874;2023-05-29T04:56:41;14.10;99.90
13686;DHT22;6915;48.296;8.874;2023-05-29T04:59:10;13.90;99.90
13686;DHT22;6915;48.296;8.874;2023-05-29T05:01:41;13.80;99.90
13686;DHT22;6915;48.296;8.874;2023-05-29T05:04:11;13.80;99.90
13686;DHT22;6915;48.296;8.874;2023-05-29T05:06:39;14.10;99.90
13686;DHT22;6915;48.296;8.874;2023-05-29T05:09:08;14.60;99.90
13686;DHT22;6915;48.296;8.874;2023-05-29T05:11:38;14.80;99.90
13686;DHT22;6915;48.296;8.874;2023-05-29T05:14:08;15.30;99.90
13686;DHT22;6915;48.296;8.874;2023-05-29T05:16:37;15.40;99.90
13686;DHT22;6915;48.296;8.874;2023-05-29T05:19:05;15.50;99.90
13686;DHT22;6915;48.296;8.874;2023-05-29T05:21:36;15.80;99.90
13686;DHT22;6915;48.296;8.874;2023-05-29T05:24:06;16.20;99.90
13686;DHT22;6915;48.296;8.874;2023-05-29T05:26:34;16.50;99.90
13686;DHT22;6915;48.296;8.874;2023-05-29T05:29:03;16.80;99.90
13686;DHT22;6915;48.296;8.874;2023-05-29T05:31:32;17.00;99.90
13686;DHT22;6915;48.296;8.874;2023-05-29T05:34:00;17.00;99.90
13686;DHT22;6915;48.296;8.874;2023-05-29T05:36:31;17.00;99.90
13686;DHT22;6915;48.296;8.874;2023-05-29T05:39:00;16.90;99.90
13686;DHT22;6915;48.296;8.874;2023-05-29T05:41:30;16.90;99.90
13686;DHT22;6915;48.296;8.874;2023-05-29T05:43:59;17.00;99.90
13686;DHT22;6915;48.296;8.874;2023-05-29T05:46:27;16.90;99.90
13686;DHT22;6915;48.296;8.874;2023-05-29T05:48:56;17.10;99.90
13686;DHT22;6915;48.296;8.874;2023-05-29T05:51:26;17.10;99.90
13686;DHT22;6915;48.296;8.874;2023-05-29T05:53:55;16.90;99.90
13686;DHT22;6915;48.296;8.874;2023-05-29T05:56:24;16.60;99.90
13686;DHT22;6915;48.296;8.874;2023-05-29T05:58:55;16.50;99.90
13686;DHT22;6915;48.296;8.874;2023-05-29T06:01:24;16.20;99.90
13686;DHT22;6915;48.296;8.874;2023-05-29T06:03:52;16.10;99.90
13686;DHT22;6915;48.296;8.874;2023-05-29T06:06:21;16.20;99.90
13686;DHT22;6915;48.296;8.874;2023-05-29T06:08:50;16.50;99.90
13686;DHT22;6915;48.296;8.874;2023-05-29T06:11:19;16.40;99.90
13686;DHT22;6915;48.296;8.874;2023-05-29T06:13:47;16.40;99.90
13686;DHT22;6915;48.296;8.874;2023-05-29T06:16:18;16.50;99.90
13686;DHT22;6915;48.296;8.874;2023-05-29T06:18:46;16.50;99.90
13686;DHT22;6915;48.296;8.874;2023-05-29T06:21:15;16.50;99.90
13686;DHT22;6915;48.296;8.874;2023-05-29T06:23:44;16.40;99.90
13686;DHT22;6915;48.296;8.874;2023-05-29T06:26:12;16.50;99.90
13686;DHT22;6915;48.296;8.874;2023-05-29T06:28:43;16.60;99.90
13686;DHT22;6915;48.296;8.874;2023-05-29T06:31:11;16.70;99.90
13686;DHT22;6915;48.296;8.874;2023-05-29T06:33:42;16.70;99.90
13686;DHT22;6915;48.296;8.874;2023-05-29T06:36:10;16.80;99.90
13686;DHT22;6915;48.296;8.874;2023-05-29T06:38:39;16.80;99.90
13686;DHT22;6915;48.296;8.874;2023-05-29T06:41:08;16.70;99.90
13686;DHT22;6915;48.296;8.874;2023-05-29T06:43:36;16.70;99.90
13686;DHT22;6915;48.296;8.874;2023-05-29T06:46:05;16.80;99.90
13686;DHT22;6915;48.296;8.874;2023-05-29T06:48:34;17.00;99.90
13686;DHT22;6915;48.296;8.874;2023-05-29T06:51:05;17.00;99.90
13686;DHT22;6915;48.296;8.874;2023-05-29T06:53:36;17.10;99.90
13686;DHT22;6915;48.296;8.874;2023-05-29T06:56:06;17.20;99.90
13686;DHT22;6915;48.296;8.874;2023-05-29T06:58:35;17.30;99.90
13686;DHT22;6915;48.296;8.874;2023-05-29T07:01:04;17.30;99.90
13686;DHT22;6915;48.296;8.874;2023-05-29T07:03:32;17.60;99.90
13686;DHT22;6915;48.296;8.874;2023-05-29T07:06:01;17.90;99.90
13686;DHT22;6915;48.296;8.874;2023-05-29T07:08:32;18.00;99.90
13686;DHT22;6915;48.296;8.874;2023-05-29T07:11:00;18.10;99.90
13686;DHT22;6915;48.296;8.874;2023-05-29T07:13:29;17.90;99.90
13686;DHT22;6915;48.296;8.874;2023-05-29T07:15:58;17.80;99.90
13686;DHT22;6915;48.296;8.874;2023-05-29T07:18:27;17.80;99.90
13686;DHT22;6915;48.296;8.874;2023-05-29T07:20:57;17.70;99.90
13686;DHT22;6915;48.296;8.874;2023-05-29T07:23:27;17.70;99.90
13686;DHT22;6915;48.296;8.874;2023-05-29T07:25:57;17.90;99.90
13686;DHT22;6915;48.296;8.874;2023-05-29T07:28:25;18.00;99.90
13686;DHT22;6915;48.296;8.874;2023-05-29T07:30:54;18.10;99.90
13686;DHT22;6915;48.296;8.874;2023-05-29T07:33:23;18.60;99.90
13686;DHT22;6915;48.296;8.874;2023-05-29T07:35:52;18.80;99.90
13686;DHT22;6915;48.296;8.874;2023-05-29T07:38:20;19.10;99.90
13686;DHT22;6915;48.296;8.874;2023-05-29T07:40:49;19.00;99.90
13686;DHT22;6915;48.296;8.874;2023-05-29T07:43:19;18.90;99.90
13686;DHT22;6915;48.296;8.874;2023-05-29T07:45:48;18.80;99.90
13686;DHT22;6915;48.296;8.874;2023-05-29T07:48:17;18.90;99.90
13686;DHT22;6915;48.296;8.874;2023-05-29T07:50:45;19.10;99.90
13686;DHT22;6915;48.296;8.874;2023-05-29T07:53:14;19.20;99.90
13686;DHT22;6915;48.296;8.874;2023-05-29T07:55:43;19.40;99.90
13686;DHT22;6915;48.296;8.874;2023-05-29T07:58:12;19.70;99.90
13686;DHT22;6915;48.296;8.874;2023-05-29T08:00:46;19.70;99.90
13686;DHT22;6915;48.296;8.874;2023-05-29T08:03:15;19.90;99.90
13686;DHT22;6915;48.296;8.874;2023-05-29T08:05:43;19.90;99.90
13686;DHT22;6915;48.296;8.874;2023-05-29T08:08:12;19.70;99.90
13686;DHT22;6915;48.296;8.874;2023-05-29T08:10:41;19.50;99.90
13686;DHT22;6915;48.296;8.874;2023-05-29T08:13:09;19.20;99.90
13686;DHT22;6915;48.296;8.874;2023-05-29T08:15:38;19.20;99.90
13686;DHT22;6915;48.296;8.874;2023-05-29T08:18:09;19.40;99.90
13686;DHT22;6915;48.296;8.874;2023-05-29T08:20:39;19.40;99.90
13686;DHT22;6915;48.296;8.874;2023-05-29T08:23:08;19.60;99.90
13686;DHT22;6915;48.296;8.874;2023-05-29T08:25:38;19.70;99.90
13686;DHT22;6915;48.296;8.874;2023-05-29T08:28:09;19.90;99.90
13686;DHT22;6915;48.296;8.874;2023-05-29T08:30:39;20.00;99.90
13686;DHT22;6915;48.296;8.874;2023-05-29T08:33:10;19.80;99.90
13686;DHT22;6915;48.296;8.874;2023-05-29T08:35:40;20.00;99.90
13686;DHT22;6915;48.296;8.874;2023-05-29T08:38:11;20.20;99.90
13686;DHT22;6915;48.296;8.874;2023-05-29T08:40:40;20.40;99.90
13686;DHT22;6915;48.296;8.874;2023-05-29T08:43:12;20.20;99.90
13686;DHT22;6915;48.296;8.874;2023-05-29T08:45:46;20.40;99.90
13686;DHT22;6915;48.296;8.874;2023-05-29T08:48:18;20.60;99.90
13686;DHT22;6915;48.296;8.874;2023-05-29T08:50:48;20.60;99.90
13686;DHT22;6915;48.296;8.874;2023-05-29T08:53:19;20.40;99.90
13686;DHT22;6915;48.296;8.874;2023-05-29T08:55:51;20.60;99.90
13686;DHT22;6915;48.296;8.874;2023-05-29T08:58:21;20.70;99.90
13686;DHT22;6915;48.296;8.874;2023-05-29T09:00:51;20.80;99.90
13686;DHT22;6915;48.296;8.874;2023-05-29T09:03:22;20.70;99.90
13686;DHT22;6915;48.296;8.874;2023-05-29T09:05:52;20.90;99.90
13686;DHT22;6915;48.296;8.874;2023-05-29T09:08:26;20.90;99.90
13686;DHT22;6915;48.296;8.874;2023-05-29T09:10:55;21.00;99.90
13686;DHT22;6915;48.296;8.874;2023-05-29T09:13:25;21.10;99.90
13686;DHT22;6915;48.296;8.874;2023-05-29T09:16:00;21.20;99.90
13686;DHT22;6915;48.296;8.874;2023-05-29T09:18:33;21.30;99.90
13686;DHT22;6915;48.296;8.874;2023-05-29T09:21:08;21.20;99.90
13686;DHT22;6915;48.296;8.874;2023-05-29T09:23:37;21.40;99.90
13686;DHT22;6915;48.296;8.874;2023-05-29T09:26:05;21.40;99.90
13686;DHT22;6915;48.296;8.874;2023-05-29T09:28:49;21.40;99.90
13686;DHT22;6915;48.296;8.874;2023-05-29T09:31:18;21.40;99.90
13686;DHT22;6915;48.296;8.874;2023-05-29T09:34:08;21.70;99.90
13686;DHT22;6915;48.296;8.874;2023-05-29T09:37:08;22.00;99.90
13686;DHT22;6915;48.296;8.874;2023-05-29T09:39:46;21.90;99.90
13686;DHT22;6915;48.296;8.874;2023-05-29T09:42:20;21.80;99.90
13686;DHT22;6915;48.296;8.874;2023-05-29T09:44:51;21.90;99.90
13686;DHT22;6915;48.296;8.874;2023-05-29T09:47:21;21.60;99.90
13686;DHT22;6915;48.296;8.874;2023-05-29T09:49:51;21.70;99.90
13686;DHT22;6915;48.296;8.874;2023-05-29T09:52:23;21.70;99.90
13686;DHT22;6915;48.296;8.874;2023-05-29T09:54:52;21.80;99.90
13686;DHT22;6915;48.296;8.874;2023-05-29T09:57:22;22.10;99.90
13686;DHT22;6915;48.296;8.874;2023-05-29T09:59:54;22.30;99.90
13686;DHT22;6915;48.296;8.874;2023-05-29T10:02:23;22.50;99.90
13686;DHT22;6915;48.296;8.874;2023-05-29T10:04:54;22.60;99.90
13686;DHT22;6915;48.296;8.874;2023-05-29T10:07:27;22.80;99.90
13686;DHT22;6915;48.296;8.874;2023-05-29T10:10:03;22.80;99.90
13686;DHT22;6915;48.296;8.874;2023-05-29T10:15:05;22.80;99.90
13686;DHT22;6915;48.296;8.874;2023-05-29T10:17:36;22.80;99.90
13686;DHT22;6915;48.296;8.874;2023-05-29T10:20:12;22.70;99.90
13686;DHT22;6915;48.296;8.874;2023-05-29T10:22:47;22.50;99.90
13686;DHT22;6915;48.296;8.874;2023-05-29T10:25:20;22.90;99.90
13686;DHT22;6915;48.296;8.874;2023-05-29T10:27:52;23.00;99.90
13686;DHT22;6915;48.296;8.874;2023-05-29T10:30:41;23.00;99.90
13686;DHT22;6915;48.296;8.874;2023-05-29T10:33:31;22.60;99.90
13686;DHT22;6915;48.296;8.874;2023-05-29T10:36:15;22.70;99.90
13686;DHT22;6915;48.296;8.874;2023-05-29T10:38:48;22.90;99.90
13686;DHT22;6915;48.296;8.874;2023-05-29T10:41:32;22.90;99.90
13686;DHT22;6915;48.296;8.874;2023-05-29T10:44:37;22.80;99.90
13686;DHT22;6915;48.296;8.874;2023-05-29T10:55:12;23.20;99.90
13686;DHT22;6915;48.296;8.874;2023-05-29T10:57:48;23.30;99.90
13686;DHT22;6915;48.296;8.874;2023-05-29T11:00:18;23.50;99.90
13686;DHT22;6915;48.296;8.874;2023-05-29T11:02:51;23.30;99.90
13686;DHT22;6915;48.296;8.874;2023-05-29T11:05:19;23.30;99.90
13686;DHT22;6915;48.296;8.874;2023-05-29T11:10:45;23.30;99.90
13686;DHT22;6915;48.296;8.874;2023-05-29T11:13:26;23.30;99.90
13686;DHT22;6915;48.296;8.874;2023-05-29T11:16:13;23.20;99.90
13686;DHT22;6915;48.296;8.874;2023-05-29T11:18:45;23.50;99.90
13686;DHT22;6915;48.296;8.874;2023-05-29T11:21:27;23.60;99.90
13686;DHT22;6915;48.296;8.874;2023-05-29T11:24:00;23.60;99.90
13686;DHT22;6915;48.296;8.874;2023-05-29T11:26:34;23.70;99.90
13686;DHT22;6915;48.296;8.874;2023-05-29T11:29:05;23.70;99.90
13686;DHT22;6915;48.296;8.874;2023-05-29T11:31:39;23.50;99.90
13686;DHT22;6915;48.296;8.874;2023-05-29T11:34:13;23.50;99.90
13686;DHT22;6915;48.296;8.874;2023-05-29T11:36:43;23.50;99.90
13686;DHT22;6915;48.296;8.874;2023-05-29T11:39:13;23.40;99.90
13686;DHT22;6915;48.296;8.874;2023-05-29T11:41:43;23.50;99.90
13686;DHT22;6915;48.296;8.874;2023-05-29T11:44:15;23.50;99.90
13686;DHT22;6915;48.296;8.874;2023-05-29T11:46:44;23.30;99.90
13686;DHT22;6915;48.296;8.874;2023-05-29T11:49:13;23.60;99.90
13686;DHT22;6915;48.296;8.874;2023-05-29T11:51:43;23.60;99.90
13686;DHT22;6915;48.296;8.874;2023-05-29T11:54:14;23.70;99.90
13686;DHT22;6915;48.296;8.874;2023-05-29T11:56:49;23.90;99.90
13686;DHT22;6915;48.296;8.874;2023-05-29T11:59:20;23.80;99.90
13686;DHT22;6915;48.296;8.874;2023-05-29T12:01:48;23.90;99.90
13686;DHT22;6915;48.296;8.874;2023-05-29T12:04:17;23.90;99.90
13686;DHT22;6915;48.296;8.874;2023-05-29T12:06:46;23.60;99.90
13686;DHT22;6915;48.296;8.874;2023-05-29T12:09:24;23.40;99.90
13686;DHT22;6915;48.296;8.874;2023-05-29T12:12:03;23.70;99.90
13686;DHT22;6915;48.296;8.874;2023-05-29T12:14:33;24.00;99.90
13686;DHT22;6915;48.296;8.874;2023-05-29T12:17:01;24.00;99.90
13686;DHT22;6915;48.296;8.874;2023-05-29T12:19:31;23.80;99.90
13686;DHT22;6915;48.296;8.874;2023-05-29T12:21:59;23.80;99.90
13686;DHT22;6915;48.296;8.874;2023-05-29T12:24:28;24.00;99.90
13686;DHT22;6915;48.296;8.874;2023-05-29T12:26:59;23.90;99.90
13686;DHT22;6915;48.296;8.874;2023-05-29T12:29:32;23.80;99.90
13686;DHT22;6915;48.296;8.874;2023-05-29T12:32:01;23.80;99.90
13686;DHT22;6915;48.296;8.874;2023-05-29T12:34:35;23.60;99.90
13686;DHT22;6915;48.296;8.874;2023-05-29T12:37:08;23.80;99.90
13686;DHT22;6915;48.296;8.874;2023-05-29T12:39:41;23.90;99.90
13686;DHT22;6915;48.296;8.874;2023-05-29T12:42:11;24.00;99.90
13686;DHT22;6915;48.296;8.874;2023-05-29T12:44:41;24.10;99.90
13686;DHT22;6915;48.296;8.874;2023-05-29T12:47:13;23.90;99.90
13686;DHT22;6915;48.296;8.874;2023-05-29T12:49:42;23.80;99.90
13686;DHT22;6915;48.296;8.874;2023-05-29T12:52:10;23.80;99.90
13686;DHT22;6915;48.296;8.874;2023-05-29T12:54:40;23.80;99.90
13686;DHT22;6915;48.296;8.874;2023-05-29T12:57:08;23.80;99.90
13686;DHT22;6915;48.296;8.874;2023-05-29T12:59:37;24.00;99.90
13686;DHT22;6915;48.296;8.874;2023-05-29T13:02:06;24.00;99.90
13686;DHT22;6915;48.296;8.874;2023-05-29T13:04:37;23.80;99.90
13686;DHT22;6915;48.296;8.874;2023-05-29T13:07:07;23.60;99.90
13686;DHT22;6915;48.296;8.874;2023-05-29T13:09:36;23.80;99.90
13686;DHT22;6915;48.296;8.874;2023-05-29T13:12:06;24.10;99.90
13686;DHT22;6915;48.296;8.874;2023-05-29T13:14:36;24.10;99.90
13686;DHT22;6915;48.296;8.874;2023-05-29T13:17:05;24.00;99.90
13686;DHT22;6915;48.296;8.874;2023-05-29T13:19:34;24.10;99.90
13686;DHT22;6915;48.296;8.874;2023-05-29T13:22:05;24.00;99.90
13686;DHT22;6915;48.296;8.874;2023-05-29T13:24:34;24.00;99.90
13686;DHT22;6915;48.296;8.874;2023-05-29T13:27:04;24.10;99.90
13686;DHT22;6915;48.296;8.874;2023-05-29T13:29:33;24.00;99.90
13686;DHT22;6915;48.296;8.874;2023-05-29T13:32:02;23.60;99.90
13686;DHT22;6915;48.296;8.874;2023-05-29T13:34:31;23.80;99.90
13686;DHT22;6915;48.296;8.874;2023-05-29T13:37:00;23.80;99.90
13686;DHT22;6915;48.296;8.874;2023-05-29T13:39:29;23.70;99.90
13686;DHT22;6915;48.296;8.874;2023-05-29T13:41:58;23.70;99.90
13686;DHT22;6915;48.296;8.874;2023-05-29T13:44:27;23.80;99.90
13686;DHT22;6915;48.296;8.874;2023-05-29T13:46:58;23.80;99.90
13686;DHT22;6915;48.296;8.874;2023-05-29T13:49:27;23.90;99.90
13686;DHT22;6915;48.296;8.874;2023-05-29T13:51:58;23.90;99.90
13686;DHT22;6915;48.296;8.874;2023-05-29T13:54:27;23.80;99.90
13686;DHT22;6915;48.296;8.874;2023-05-29T13:56:57;23.80;99.90
13686;DHT22;6915;48.296;8.874;2023-05-29T13:59:26;23.90;99.90
13686;DHT22;6915;48.296;8.874;2023-05-29T14:01:55;23.80;99.90
13686;DHT22;6915;48.296;8.874;2023-05-29T14:04:26;23.70;99.90
13686;DHT22;6915;48.296;8.874;2023-05-29T14:06:54;24.00;99.90
13686;DHT22;6915;48.296;8.874;2023-05-29T14:09:24;23.90;99.90
13686;DHT22;6915;48.296;8.874;2023-05-29T14:11:53;23.80;99.90
13686;DHT22;6915;48.296;8.874;2023-05-29T14:14:22;24.00;99.90
13686;DHT22;6915;48.296;8.874;2023-05-29T14:16:52;24.10;99.90
13686;DHT22;6915;48.296;8.874;2023-05-29T14:19:22;24.20;99.90
13686;DHT22;6915;48.296;8.874;2023-05-29T14:21:53;24.10;99.90
13686;DHT22;6915;48.296;8.874;2023-05-29T14:24:23;24.20;99.90
13686;DHT22;6915;48.296;8.874;2023-05-29T14:26:52;24.00;99.90
13686;DHT22;6915;48.296;8.874;2023-05-29T14:29:20;23.80;99.90
13686;DHT22;6915;48.296;8.874;2023-05-29T14:31:49;24.00;99.90
13686;DHT22;6915;48.296;8.874;2023-05-29T14:34:18;24.00;99.90
13686;DHT22;6915;48.296;8.874;2023-05-29T14:36:46;23.80;99.90
13686;DHT22;6915;48.296;8.874;2023-05-29T14:39:17;23.60;99.90
13686;DHT22;6915;48.296;8.874;2023-05-29T14:41:45;23.80;99.90
13686;DHT22;6915;48.296;8.874;2023-05-29T14:44:15;24.10;99.90
13686;DHT22;6915;48.296;8.874;2023-05-29T14:46:43;24.00;99.90
13686;DHT22;6915;48.296;8.874;2023-05-29T14:49:12;23.80;99.90
13686;DHT22;6915;48.296;8.874;2023-05-29T14:51:42;23.80;99.90
13686;DHT22;6915;48.296;8.874;2023-05-29T14:54:13;24.10;99.90
13686;DHT22;6915;48.296;8.874;2023-05-29T14:59:47;24.00;99.90
13686;DHT22;6915;48.296;8.874;2023-05-29T15:08:13;23.70;99.90
13686;DHT22;6915;48.296;8.874;2023-05-29T15:10:42;23.60;99.90
13686;DHT22;6915;48.296;8.874;2023-05-29T15:13:10;23.50;99.90
13686;DHT22;6915;48.296;8.874;2023-05-29T15:18:19;23.80;99.90
13686;DHT22;6915;48.296;8.874;2023-05-29T15:20:48;23.80;99.90
13686;DHT22;6915;48.296;8.874;2023-05-29T15:23:17;23.70;99.90
13686;DHT22;6915;48.296;8.874;2023-05-29T15:25:46;23.60;99.90
13686;DHT22;6915;48.296;8.874;2023-05-29T15:28:15;23.60;99.90
13686;DHT22;6915;48.296;8.874;2023-05-29T15:30:43;23.60;99.90
13686;DHT22;6915;48.296;8.874;2023-05-29T15:33:13;23.80;99.90
13686;DHT22;6915;48.296;8.874;2023-05-29T15:35:43;23.80;99.90
13686;DHT22;6915;48.296;8.874;2023-05-29T15:38:15;23.60;99.90
13686;DHT22;6915;48.296;8.874;2023-05-29T15:40:46;23.70;99.90
13686;DHT22;6915;48.296;8.874;2023-05-29T15:43:14;23.80;99.90
13686;DHT22;6915;48.296;8.874;2023-05-29T15:45:43;23.80;99.90
13686;DHT22;6915;48.296;8.874;2023-05-29T15:48:12;23.70;99.90
13686;DHT22;6915;48.296;8.874;2023-05-29T15:50:40;23.80;99.90
13686;DHT22;6915;48.296;8.874;2023-05-29T15:53:09;23.60;99.90
13686;DHT22;6915;48.296;8.874;2023-05-29T15:55:37;23.40;99.90
13686;DHT22;6915;48.296;8.874;2023-05-29T15:58:06;23.30;99.90
13686;DHT22;6915;48.296;8.874;2023-05-29T16:00:35;23.60;99.90
13686;DHT22;6915;48.296;8.874;2023-05-29T16:03:03;23.50;99.90
13686;DHT22;6915;48.296;8.874;2023-05-29T16:05:32;23.50;99.90
13686;DHT22;6915;48.296;8.874;2023-05-29T16:13:15;23.30;99.90
13686;DHT22;6915;48.296;8.874;2023-05-29T16:15:45;23.30;99.90
13686;DHT22;6915;48.296;8.874;2023-05-29T16:18:15;23.20;99.90
13686;DHT22;6915;48.296;8.874;2023-05-29T16:20:43;23.40;99.90
13686;DHT22;6915;48.296;8.874;2023-05-29T16:23:14;23.20;99.90
13686;DHT22;6915;48.296;8.874;2023-05-29T16:25:42;23.30;99.90
13686;DHT22;6915;48.296;8.874;2023-05-29T16:28:12;23.20;99.90
13686;DHT22;6915;48.296;8.874;2023-05-29T16:30:40;23.20;99.90
13686;DHT22;6915;48.296;8.874;2023-05-29T16:33:09;23.20;99.90
13686;DHT22;6915;48.296;8.874;2023-05-29T16:35:39;23.20;99.90
13686;DHT22;6915;48.296;8.874;2023-05-29T16:38:08;23.20;99.90
13686;DHT22;6915;48.296;8.874;2023-05-29T16:40:37;23.30;99.90